Time;durP1;ratioP1;P1;durP2;ratioP2;P2;SDS_P1;SDS_P2;PMS_P1;PMS_P2;Temp;Humidity;BMP_temperature;BMP_pressure;BME280_temperature;BME280_humidity;BME280_pressure;Samples;Min_cycle;Max_cycle;Signal;HPM_P1;HPM_P2
2023/10/09 00:01:48;;;;;;;155.33;122.33;;;;;14.50;97859.00;;;;5090032;28;20199;-68
2023/10/09 00:04:38;;;;;;;155.90;121.03;;;;;14.10;97835.00;;;;5090121;28;20207;-68
2023/10/09 00:07:27;;;;;;;168.23;130.63;;;;;14.00;97824.00;;;;5104133;28;20211;-68
2023/10/09 00:10:17;;;;;;;156.77;124.27;;;;;13.80;97818.00;;;;5088324;28;20203;-68
2023/10/09 00:13:09;;;;;;;152.43;119.17;;;;;13.90;97804.00;;;;5107785;28;20197;-68
2023/10/09 00:16:09;;;;;;;153.17;119.87;;;;;14.00;97801.00;;;;5090341;28;20203;-68
2023/10/09 00:19:12;;;;;;;363.48;263.75;;;;;13.70;97760.00;;;;5097288;28;20418;-68
2023/10/09 00:22:10;;;;;;;207.37;151.37;;;;;13.60;97771.00;;;;5082505;28;20207;-70
2023/10/09 00:25:11;;;;;;;192.03;137.23;;;;;13.30;97770.00;;;;5083542;28;20559;-70
2023/10/09 00:28:05;;;;;;;172.70;126.67;;;;;13.10;97781.00;;;;5094321;28;20212;-71
2023/10/09 00:30:54;;;;;;;160.50;119.90;;;;;13.10;97791.00;;;;5091644;28;20563;-70
2023/10/09 00:33:45;;;;;;;150.67;113.60;;;;;12.70;97777.00;;;;5085965;28;20201;-68
2023/10/09 00:36:49;;;;;;;155.77;113.67;;;;;12.50;97768.00;;;;5082574;28;20195;-67
2023/10/09 00:39:43;;;;;;;155.50;111.70;;;;;12.10;97765.00;;;;5089787;28;20227;-68
2023/10/09 00:42:35;;;;;;;147.93;104.80;;;;;12.40;97758.00;;;;5086971;28;20203;-67
2023/10/09 00:45:31;;;;;;;150.23;109.63;;;;;12.90;97756.00;;;;5104636;28;20218;-68
2023/10/09 00:48:30;;;;;;;149.43;105.30;;;;;12.30;97743.00;;;;5106683;28;20246;-67
2023/10/09 00:51:24;;;;;;;141.20;103.80;;;;;12.60;97735.00;;;;5092799;28;20594;-68
2023/10/09 00:54:14;;;;;;;140.33;101.47;;;;;12.40;97725.00;;;;5098475;28;20226;-68
2023/10/09 00:57:07;;;;;;;135.43;101.63;;;;;12.60;97729.00;;;;5098876;28;20207;-68
2023/10/09 00:59:59;;;;;;;140.00;107.00;;;;;12.70;97717.00;;;;5096099;28;20226;-70
2023/10/09 01:03:10;;;;;;;136.80;102.17;;;;;12.90;97722.00;;;;5095501;28;20674;-68
2023/10/09 01:06:15;;;;;;;135.83;99.33;;;;;12.90;97722.00;;;;5088662;28;20209;-68
2023/10/09 01:09:10;;;;;;;134.50;100.50;;;;;12.70;97730.00;;;;5092852;28;20223;-68
2023/10/09 01:12:04;;;;;;;134.80;100.97;;;;;13.10;97739.00;;;;5079933;28;20199;-68
2023/10/09 01:14:55;;;;;;;131.17;101.17;;;;;13.10;97726.00;;;;5100431;28;20206;-69
2023/10/09 01:17:45;;;;;;;137.53;105.33;;;;;13.40;97723.00;;;;5088933;28;20218;-69
2023/10/09 01:20:41;;;;;;;136.53;103.77;;;;;13.40;97717.00;;;;5093364;28;20194;-69
2023/10/09 01:23:32;;;;;;;141.13;106.20;;;;;13.60;97715.00;;;;5099608;28;20199;-69
2023/10/09 01:26:22;;;;;;;138.13;106.87;;;;;13.60;97715.00;;;;5090638;28;20222;-69
2023/10/09 01:29:16;;;;;;;134.17;104.87;;;;;13.60;97729.00;;;;5091025;28;20238;-69
2023/10/09 01:32:06;;;;;;;135.73;104.83;;;;;13.50;97723.00;;;;5091713;28;20199;-69
2023/10/09 01:34:57;;;;;;;144.57;108.60;;;;;13.50;97712.00;;;;5094710;28;20206;-69
2023/10/09 01:37:49;;;;;;;137.97;106.73;;;;;13.50;97696.00;;;;5093019;28;20674;-69
2023/10/09 01:40:41;;;;;;;141.73;106.50;;;;;13.70;97685.00;;;;5099355;28;20198;-69
2023/10/09 01:43:34;;;;;;;150.83;114.03;;;;;13.90;97693.00;;;;5100584;28;20222;-69
2023/10/09 01:46:23;;;;;;;148.37;111.27;;;;;13.90;97681.00;;;;5109415;28;20202;-69
2023/10/09 01:49:17;;;;;;;152.37;112.90;;;;;13.90;97704.00;;;;5109474;28;20226;-69
2023/10/09 01:52:09;;;;;;;150.23;110.63;;;;;14.00;97682.00;;;;5098124;28;20206;-69
2023/10/09 01:55:03;;;;;;;159.23;114.90;;;;;13.90;97678.00;;;;5092294;28;20207;-69
2023/10/09 01:57:54;;;;;;;141.80;109.23;;;;;13.60;97658.00;;;;5090598;28;20198;-69
2023/10/09 02:00:49;;;;;;;131.00;104.13;;;;;13.20;97666.00;;;;5084119;28;20195;-68
2023/10/09 02:03:41;;;;;;;128.97;106.67;;;;;13.60;97661.00;;;;5091066;28;20199;-68
2023/10/09 02:06:32;;;;;;;140.47;112.43;;;;;13.80;97669.00;;;;5105675;28;20585;-68
2023/10/09 02:09:28;;;;;;;141.63;113.17;;;;;13.90;97661.00;;;;5105113;28;20229;-69
2023/10/09 02:12:18;;;;;;;138.03;110.80;;;;;13.90;97659.00;;;;5097533;28;20206;-69
2023/10/09 02:15:15;;;;;;;131.33;105.63;;;;;13.90;97667.00;;;;5101208;28;20264;-69
2023/10/09 02:18:16;;;;;;;130.17;109.10;;;;;13.90;97661.00;;;;5085730;28;20234;-68
2023/10/09 02:21:15;;;;;;;122.00;104.63;;;;;13.90;97666.00;;;;5093329;28;20201;-68
2023/10/09 02:24:09;;;;;;;113.13;100.77;;;;;13.90;97664.00;;;;5092874;28;20198;-69
2023/10/09 02:27:07;;;;;;;113.07;101.00;;;;;13.90;97657.00;;;;5108570;28;20203;-69
2023/10/09 02:29:58;;;;;;;119.57;106.30;;;;;13.90;97650.00;;;;5085213;28;20223;-68
2023/10/09 02:32:53;;;;;;;111.73;99.63;;;;;13.80;97645.00;;;;5102330;28;20202;-69
2023/10/09 02:35:44;;;;;;;117.90;104.50;;;;;13.90;97637.00;;;;5090912;28;20203;-68
2023/10/09 02:38:37;;;;;;;117.30;104.30;;;;;13.90;97646.00;;;;5098286;28;20242;-69
2023/10/09 02:41:28;;;;;;;120.13;106.80;;;;;13.90;97650.00;;;;5098314;28;20203;-69
2023/10/09 02:44:24;;;;;;;115.77;103.17;;;;;13.90;97652.00;;;;5089318;28;20419;-69
2023/10/09 02:47:20;;;;;;;116.70;103.83;;;;;13.90;97658.00;;;;5100507;28;20266;-69
2023/10/09 02:50:11;;;;;;;116.67;104.23;;;;;14.00;97642.00;;;;5096919;28;20198;-68
2023/10/09 02:53:08;;;;;;;117.60;105.10;;;;;14.00;97641.00;;;;5093301;28;20215;-69
2023/10/09 02:56:12;;;;;;;117.80;105.13;;;;;13.90;97638.00;;;;5098587;28;20194;-69
2023/10/09 02:59:05;;;;;;;112.20;100.73;;;;;14.00;97637.00;;;;5077091;28;20244;-68
2023/10/09 03:01:54;;;;;;;106.80;96.03;;;;;14.10;97621.00;;;;5094899;28;20210;-69
2023/10/09 03:04:43;;;;;;;111.67;100.37;;;;;14.00;97632.00;;;;5104434;28;20219;-68
2023/10/09 03:07:34;;;;;;;118.67;106.07;;;;;14.00;97631.00;;;;5106431;28;20981;-69
2023/10/09 03:10:25;;;;;;;116.17;103.90;;;;;14.00;97629.00;;;;5089701;28;20199;-69
2023/10/09 03:13:19;;;;;;;115.20;103.87;;;;;14.10;97623.00;;;;5089806;28;20561;-69
2023/10/09 03:16:14;;;;;;;107.17;96.57;;;;;14.00;97623.00;;;;5089122;28;20210;-69
2023/10/09 03:19:03;;;;;;;106.07;95.67;;;;;14.00;97610.00;;;;5097324;28;20246;-68
2023/10/09 03:21:52;;;;;;;103.83;93.83;;;;;14.00;97609.00;;;;5097812;28;20675;-68
2023/10/09 03:24:44;;;;;;;106.07;95.70;;;;;14.00;97615.00;;;;5100490;28;20206;-69
2023/10/09 03:27:36;;;;;;;105.77;95.70;;;;;13.90;97611.00;;;;5094986;28;20203;-69
2023/10/09 03:30:26;;;;;;;111.33;99.93;;;;;13.90;97610.00;;;;5088623;28;20288;-69
2023/10/09 03:33:16;;;;;;;109.23;98.63;;;;;14.00;97616.00;;;;5096378;28;20206;-68
2023/10/09 03:36:09;;;;;;;105.83;95.63;;;;;13.80;97604.00;;;;5102921;28;20210;-68
2023/10/09 03:38:59;;;;;;;110.20;99.90;;;;;13.80;97595.00;;;;5092788;28;20249;-68
2023/10/09 03:41:50;;;;;;;106.03;96.07;;;;;13.70;97593.00;;;;5082159;28;20345;-68
2023/10/09 03:44:43;;;;;;;103.67;93.97;;;;;13.40;97587.00;;;;5088682;28;20203;-68
2023/10/09 03:47:32;;;;;;;105.77;95.63;;;;;13.00;97588.00;;;;5097902;28;20203;-69
2023/10/09 03:50:26;;;;;;;99.20;90.13;;;;;12.80;97576.00;;;;5100379;28;20215;-69
2023/10/09 03:53:16;;;;;;;95.73;87.00;;;;;13.00;97587.00;;;;5106720;28;20706;-69
2023/10/09 03:56:11;;;;;;;96.73;87.70;;;;;12.90;97571.00;;;;5099799;28;20222;-69
2023/10/09 03:59:04;;;;;;;90.93;82.83;;;;;13.00;97573.00;;;;5083210;28;20234;-68
2023/10/09 04:01:53;;;;;;;91.63;83.27;;;;;13.10;97568.00;;;;5090318;28;20227;-68
2023/10/09 04:04:46;;;;;;;97.63;88.30;;;;;13.10;97569.00;;;;5088587;28;20196;-68
2023/10/09 04:07:36;;;;;;;92.57;83.57;;;;;13.10;97562.00;;;;5090202;28;20202;-68
2023/10/09 04:10:43;;;;;;;100.40;90.13;;;;;13.20;97554.00;;;;5096708;28;20707;-69
2023/10/09 04:13:36;;;;;;;98.37;88.60;;;;;13.20;97545.00;;;;5092610;28;20203;-68
2023/10/09 04:16:51;;;;;;;102.40;92.10;;;;;13.50;97561.00;;;;5086989;28;20210;-68
2023/10/09 04:19:48;;;;;;;89.10;80.90;;;;;13.60;97545.00;;;;5082847;28;20226;-68
2023/10/09 04:22:39;;;;;;;92.13;83.57;;;;;13.40;97537.00;;;;5099917;28;20201;-68
2023/10/09 04:25:29;;;;;;;104.70;93.80;;;;;13.60;97528.00;;;;5103069;28;20679;-69
2023/10/09 04:28:19;;;;;;;101.10;91.23;;;;;13.50;97540.00;;;;5096886;28;20222;-68
2023/10/09 04:31:09;;;;;;;95.83;86.53;;;;;13.60;97533.00;;;;5099510;28;20243;-68
2023/10/09 04:37:19;;;;;;;101.20;91.40;;;;;13.70;97537.00;;;;5083132;28;20575;-68
2023/10/09 04:40:27;;;;;;;100.57;90.73;;;;;13.70;97533.00;;;;5078275;28;20638;-68
2023/10/09 04:43:21;;;;;;;98.33;89.00;;;;;13.50;97520.00;;;;5104126;28;20624;-68
2023/10/09 04:46:12;;;;;;;91.83;83.43;;;;;13.50;97526.00;;;;5099615;28;20210;-68
2023/10/09 04:49:26;;;;;;;98.53;89.13;;;;;13.50;97499.00;;;;5100465;28;20226;-68
2023/10/09 04:52:18;;;;;;;97.50;88.23;;;;;13.50;97519.00;;;;5093378;28;20202;-68
2023/10/09 04:55:15;;;;;;;102.93;93.13;;;;;13.50;97505.00;;;;5094277;28;20207;-68
2023/10/09 04:58:13;;;;;;;96.60;87.73;;;;;13.20;97499.00;;;;5087829;28;20777;-68
2023/10/09 05:01:12;;;;;;;94.17;85.27;;;;;13.50;97505.00;;;;5094933;28;20231;-68
2023/10/09 05:04:15;;;;;;;98.43;89.03;;;;;13.50;97485.00;;;;5091110;28;20207;-68
2023/10/09 05:10:15;;;;;;;99.03;89.53;;;;;13.50;97476.00;;;;5088758;28;20202;-68
2023/10/09 05:13:06;;;;;;;91.40;83.50;;;;;13.50;97476.00;;;;5094984;28;20692;-69
2023/10/09 05:15:58;;;;;;;99.00;89.60;;;;;13.40;97470.00;;;;5103561;28;20198;-68
2023/10/09 05:18:55;;;;;;;94.47;85.67;;;;;13.40;97470.00;;;;5092656;28;20227;-68
2023/10/09 05:21:45;;;;;;;95.93;86.67;;;;;13.50;97480.00;;;;5089981;28;20418;-69
2023/10/09 05:24:44;;;;;;;105.83;95.30;;;;;13.50;97474.00;;;;5090400;28;20203;-68
2023/10/09 05:27:51;;;;;;;99.70;89.93;;;;;13.50;97475.00;;;;5090886;28;20200;-68
2023/10/09 05:30:41;;;;;;;97.27;87.87;;;;;13.50;97469.00;;;;5088467;28;20209;-68
2023/10/09 05:33:33;;;;;;;105.97;95.33;;;;;13.50;97465.00;;;;5090261;28;20203;-68
2023/10/09 05:39:40;;;;;;;103.40;93.10;;;;;13.50;97453.00;;;;5087040;28;20219;-68
2023/10/09 05:42:42;;;;;;;104.27;93.80;;;;;13.30;97456.00;;;;5089595;28;20222;-68
2023/10/09 05:51:53;;;;;;;94.47;85.50;;;;;12.70;97433.00;;;;5086861;27;20641;-67
2023/10/09 06:04:15;;;;;;;90.23;81.67;;;;;13.10;97418.00;;;;5140133;27;20384;-67
2023/10/09 06:07:13;;;;;;;83.90;76.37;;;;;12.90;97416.00;;;;5144211;27;20276;-67
2023/10/09 06:10:17;;;;;;;91.07;82.23;;;;;13.00;97425.00;;;;5142706;27;20224;-67
2023/10/09 06:13:06;;;;;;;89.23;80.93;;;;;13.00;97427.00;;;;5146133;27;20201;-66
2023/10/09 06:19:11;;;;;;;84.30;76.90;;;;;13.10;97436.00;;;;5134272;27;20228;-67
2023/10/09 06:25:11;;;;;;;90.37;81.60;;;;;13.10;97423.00;;;;5143381;27;20197;-66
2023/10/09 06:28:01;;;;;;;87.10;79.00;;;;;13.00;97418.00;;;;5137557;27;20206;-66
2023/10/09 06:30:49;;;;;;;84.07;76.37;;;;;13.20;97413.00;;;;5138075;27;20603;-67
2023/10/09 06:34:07;;;;;;;90.70;81.87;;;;;13.10;97410.00;;;;5140952;27;20202;-66
2023/10/09 06:36:53;;;;;;;86.83;78.73;;;;;13.00;97417.00;;;;5142572;27;20205;-66
2023/10/09 06:39:50;;;;;;;87.87;79.70;;;;;13.20;97406.00;;;;5143103;27;20220;-67
2023/10/09 06:42:51;;;;;;;92.30;83.60;;;;;13.10;97410.00;;;;5144271;27;20288;-66
2023/10/09 06:45:46;;;;;;;89.93;81.30;;;;;13.10;97416.00;;;;5140777;27;20580;-67
2023/10/09 06:48:55;;;;;;;91.17;82.23;;;;;13.20;97401.00;;;;5143411;27;20747;-66
2023/10/09 06:51:47;;;;;;;84.47;76.67;;;;;13.40;97387.00;;;;5140530;27;20603;-67
2023/10/09 06:54:38;;;;;;;102.43;91.60;;;;;13.60;97398.00;;;;5137771;27;20274;-66
2023/10/09 06:57:48;;;;;;;102.83;91.87;;;;;13.40;97384.00;;;;5139423;27;20204;-66
2023/10/09 07:01:08;;;;;;;99.33;89.40;;;;;13.50;97383.00;;;;5140162;27;20201;-66
2023/10/09 07:04:18;;;;;;;94.20;84.70;;;;;13.70;97375.00;;;;5126166;27;20205;-67
2023/10/09 07:07:13;;;;;;;95.40;86.37;;;;;13.70;97372.00;;;;5128259;27;20198;-67
2023/10/09 07:13:08;;;;;;;104.67;93.97;;;;;14.00;97359.00;;;;5127577;27;20201;-67
2023/10/09 07:19:35;;;;;;;106.53;95.67;;;;;14.50;97358.00;;;;5125126;27;20217;-67
2023/10/09 07:22:23;;;;;;;110.13;99.10;;;;;14.40;97345.00;;;;5128222;27;20213;-66
2023/10/09 07:25:27;;;;;;;121.43;108.33;;;;;14.40;97352.00;;;;5119341;27;20202;-66
2023/10/09 07:28:42;;;;;;;117.57;105.23;;;;;14.70;97340.00;;;;5121542;27;20222;-66
2023/10/09 07:31:39;;;;;;;125.03;111.30;;;;;14.80;97354.00;;;;5118647;27;20598;-67
2023/10/09 07:34:52;;;;;;;142.20;122.00;;;;;14.90;97336.00;;;;5109580;27;20206;-67
2023/10/09 07:37:41;;;;;;;126.77;113.03;;;;;15.30;97327.00;;;;5112746;27;21139;-67
2023/10/09 07:40:31;;;;;;;129.73;115.90;;;;;15.30;97316.00;;;;5116138;27;20198;-67
2023/10/09 07:43:35;;;;;;;133.07;118.90;;;;;15.30;97320.00;;;;5113531;27;20922;-66
2023/10/09 07:46:32;;;;;;;142.33;126.53;;;;;15.70;97339.00;;;;5115171;27;20227;-67
2023/10/09 07:49:25;;;;;;;145.23;129.47;;;;;15.90;97318.00;;;;5114609;27;20233;-67
2023/10/09 07:52:14;;;;;;;137.43;123.40;;;;;16.00;97322.00;;;;5115355;27;20204;-67
2023/10/09 07:55:03;;;;;;;144.63;129.10;;;;;16.10;97315.00;;;;5108751;27;20202;-67
2023/10/09 07:57:52;;;;;;;153.23;136.80;;;;;16.10;97312.00;;;;5109969;27;20202;-67
2023/10/09 08:03:46;;;;;;;151.77;135.33;;;;;16.20;97297.00;;;;5114236;27;20246;-67
2023/10/09 08:06:43;;;;;;;168.13;149.70;;;;;16.40;97296.00;;;;5114046;27;20202;-67
2023/10/09 08:09:46;;;;;;;165.73;147.63;;;;;16.80;97292.00;;;;5110784;27;20271;-67
2023/10/09 08:15:52;;;;;;;162.47;145.47;;;;;17.00;97289.00;;;;5115870;27;20213;-67
2023/10/09 08:18:44;;;;;;;168.00;150.10;;;;;17.10;97272.00;;;;5114852;27;20275;-67
2023/10/09 08:21:41;;;;;;;174.03;155.60;;;;;17.20;97273.00;;;;5118587;27;20202;-67
2023/10/09 08:24:40;;;;;;;184.30;164.30;;;;;17.10;97279.00;;;;5120663;27;20205;-66
2023/10/09 08:30:49;;;;;;;181.83;162.00;;;;;17.10;97260.00;;;;5113970;27;20721;-67
2023/10/09 08:33:40;;;;;;;177.20;158.07;;;;;17.70;97249.00;;;;5120418;27;20206;-67
2023/10/09 08:36:36;;;;;;;185.83;166.50;;;;;17.70;97247.00;;;;5113899;27;20210;-67
2023/10/09 08:39:33;;;;;;;200.70;179.07;;;;;17.80;97247.00;;;;5110860;27;20238;-67
2023/10/09 08:42:25;;;;;;;195.70;174.50;;;;;17.80;97245.00;;;;5116372;27;20211;-67
2023/10/09 08:45:14;;;;;;;190.37;170.27;;;;;17.80;97249.00;;;;5119839;27;20207;-67
2023/10/09 08:48:05;;;;;;;193.67;172.70;;;;;17.90;97242.00;;;;5113269;27;20202;-67
2023/10/09 08:50:55;;;;;;;199.93;178.43;;;;;17.90;97241.00;;;;5109444;27;20275;-67
2023/10/09 08:53:45;;;;;;;199.23;177.63;;;;;18.20;97238.00;;;;5113935;27;20194;-67
2023/10/09 08:56:34;;;;;;;208.97;186.40;;;;;18.10;97245.00;;;;5109106;27;20203;-67
2023/10/09 08:59:26;;;;;;;202.83;180.53;;;;;18.30;97231.00;;;;5116706;27;20229;-67
2023/10/09 09:02:17;;;;;;;214.40;191.63;;;;;18.50;97252.00;;;;5115100;27;20186;-67
2023/10/09 09:05:18;;;;;;;221.13;196.97;;;;;18.40;97246.00;;;;5111817;27;20202;-67
2023/10/09 09:08:25;;;;;;;207.43;185.13;;;;;18.40;97234.00;;;;5115590;27;20227;-67
2023/10/09 09:11:16;;;;;;;214.53;191.30;;;;;18.50;97222.00;;;;5116879;27;20213;-67
2023/10/09 09:14:12;;;;;;;206.30;184.43;;;;;18.40;97231.00;;;;5114738;27;20202;-67
2023/10/09 09:17:04;;;;;;;212.93;190.77;;;;;18.30;97238.00;;;;5112707;27;20214;-67
2023/10/09 09:19:54;;;;;;;213.07;190.23;;;;;18.30;97224.00;;;;5115243;27;20227;-67
2023/10/09 09:22:55;;;;;;;213.77;190.87;;;;;18.20;97217.00;;;;5114605;27;20991;-67
2023/10/09 09:25:47;;;;;;;209.13;186.67;;;;;17.70;97217.00;;;;5114507;27;20197;-67
2023/10/09 09:28:38;;;;;;;215.73;192.47;;;;;17.60;97206.00;;;;5116436;27;20258;-67
2023/10/09 09:31:27;;;;;;;205.93;184.13;;;;;17.60;97203.00;;;;5111040;27;20230;-67
2023/10/09 09:34:22;;;;;;;210.80;188.47;;;;;18.20;97197.00;;;;5109403;27;20198;-67
2023/10/09 09:37:13;;;;;;;203.37;181.73;;;;;18.20;97201.00;;;;5111778;27;20202;-68
2023/10/09 09:40:14;;;;;;;211.43;188.77;;;;;18.30;97205.00;;;;5110108;27;20232;-67
2023/10/09 09:43:11;;;;;;;209.80;187.03;;;;;18.80;97194.00;;;;5120245;27;20696;-67
2023/10/09 09:46:07;;;;;;;214.07;190.77;;;;;18.90;97191.00;;;;5114115;27;20721;-67
2023/10/09 09:49:00;;;;;;;220.20;196.07;;;;;19.30;97180.00;;;;5113674;27;20264;-68
2023/10/09 09:51:50;;;;;;;229.13;204.33;;;;;19.40;97193.00;;;;5115849;27;20248;-67
2023/10/09 09:54:40;;;;;;;241.10;215.00;;;;;19.30;97182.00;;;;5116607;27;20190;-67
2023/10/09 09:57:29;;;;;;;252.43;224.93;;;;;19.50;97188.00;;;;5113997;27;20198;-67
2023/10/09 10:00:28;;;;;;;245.57;219.47;;;;;19.80;97187.00;;;;5113711;27;20202;-67
2023/10/09 10:03:21;;;;;;;250.73;223.77;;;;;20.20;97183.00;;;;5116699;27;20199;-67
2023/10/09 10:06:12;;;;;;;256.27;228.67;;;;;20.00;97184.00;;;;5111650;27;20280;-67
2023/10/09 10:09:02;;;;;;;252.47;225.70;;;;;20.30;97170.00;;;;5118692;27;20720;-68
2023/10/09 10:11:52;;;;;;;261.80;234.07;;;;;19.80;97202.00;;;;5114134;28;20767;-67
2023/10/09 10:14:57;;;;;;;265.47;237.80;;;;;20.30;97161.00;;;;5111329;27;20210;-67
2023/10/09 10:18:18;;;;;;;268.97;240.63;;;;;20.90;97191.00;;;;5116779;28;20190;-68
2023/10/09 10:21:17;;;;;;;268.07;239.97;;;;;20.30;97164.00;;;;5109829;27;20205;-68
2023/10/09 10:24:52;;;;;;;282.77;253.33;;;;;21.40;97152.00;;;;5112562;27;20719;-67
2023/10/09 10:27:58;;;;;;;288.70;257.47;;;;;22.10;97145.00;;;;5112041;27;20241;-67
2023/10/09 10:30:50;;;;;;;310.97;278.27;;;;;21.90;97132.00;;;;5111849;27;20623;-68
2023/10/09 10:34:07;;;;;;;336.30;301.43;;;;;22.90;97132.00;;;;5113461;27;20731;-68
2023/10/09 10:37:06;;;;;;;348.63;313.53;;;;;21.40;97148.00;;;;5112544;27;20210;-67
2023/10/09 10:39:59;;;;;;;357.70;322.50;;;;;22.60;97118.00;;;;5118664;27;20222;-68
2023/10/09 10:43:09;;;;;;;376.23;339.00;;;;;22.00;97130.00;;;;5120826;27;20693;-68
2023/10/09 10:46:04;;;;;;;387.33;349.03;;;;;23.50;97127.00;;;;5122677;27;20206;-68
2023/10/09 10:48:59;;;;;;;401.27;361.90;;;;;22.60;97109.00;;;;5121775;27;20226;-67
2023/10/09 10:51:49;;;;;;;417.47;376.00;;;;;23.20;97118.00;;;;5115219;27;20607;-68
2023/10/09 10:55:05;;;;;;;424.23;382.20;;;;;24.00;97107.00;;;;5115449;27;20582;-68
2023/10/09 10:58:00;;;;;;;417.37;375.63;;;;;24.60;97108.00;;;;5127064;27;20217;-68
2023/10/09 11:01:15;;;;;;;443.07;398.07;;;;;25.00;97116.00;;;;5119103;27;20202;-68
2023/10/09 11:04:12;;;;;;;445.60;402.00;;;;;23.90;97098.00;;;;5114931;27;20194;-67
2023/10/09 11:07:09;;;;;;;453.17;408.20;;;;;24.60;97097.00;;;;5115850;27;20694;-67
2023/10/09 11:10:08;;;;;;;465.10;418.70;;;;;24.20;97107.00;;;;5116580;27;20234;-67
2023/10/09 11:13:30;;;;;;;466.13;418.67;;;;;25.10;97092.00;;;;5114339;27;20218;-68
2023/10/09 11:16:28;;;;;;;464.73;417.80;;;;;25.40;97075.00;;;;5113923;27;20206;-68
2023/10/09 11:19:31;;;;;;;477.13;429.10;;;;;25.60;97080.00;;;;5115070;27;20957;-68
2023/10/09 11:22:29;;;;;;;485.77;437.40;;;;;25.90;97075.00;;;;5117457;27;20214;-68
2023/10/09 11:25:18;;;;;;;508.33;459.73;;;;;25.80;97074.00;;;;5116475;27;20200;-68
2023/10/09 11:28:42;;;;;;;500.70;453.23;;;;;26.20;97071.00;;;;5119529;27;20714;-68
2023/10/09 11:31:33;;;;;;;523.30;473.50;;;;;26.60;97060.00;;;;5114234;27;20234;-69
2023/10/09 11:34:31;;;;;;;535.00;485.53;;;;;26.20;97074.00;;;;5119638;27;20204;-67
2023/10/09 11:37:38;;;;;;;539.93;489.97;;;;;26.20;97069.00;;;;5124250;27;20912;-69
2023/10/09 11:40:33;;;;;;;550.33;499.63;;;;;27.20;97061.00;;;;5120997;27;20302;-69
2023/10/09 11:43:50;;;;;;;559.70;509.17;;;;;27.00;97047.00;;;;5122894;27;20274;-68
2023/10/09 11:46:40;;;;;;;564.87;513.83;;;;;27.30;97055.00;;;;5116622;27;20214;-68
2023/10/09 11:49:44;;;;;;;580.90;528.50;;;;;26.10;97066.00;;;;5113452;27;20614;-69
2023/10/09 11:52:35;;;;;;;576.73;525.03;;;;;27.10;97025.00;;;;5115502;27;20233;-69
2023/10/09 11:55:25;;;;;;;581.27;529.43;;;;;27.80;97044.00;;;;5110841;27;20211;-69
2023/10/09 11:58:14;;;;;;;589.90;538.57;;;;;27.30;97064.00;;;;5120075;27;20717;-69
2023/10/09 12:01:17;;;;;;;591.83;540.20;;;;;26.60;97063.00;;;;5115233;27;20580;-69
2023/10/09 12:04:09;;;;;;;586.10;535.13;;;;;28.10;97027.00;;;;5117030;27;20215;-68
2023/10/09 12:07:06;;;;;;;594.60;543.10;;;;;29.20;97072.00;;;;5117889;27;20610;-68
2023/10/09 12:09:56;;;;;;;612.37;560.53;;;;;30.10;97004.00;;;;5118152;27;20223;-68
2023/10/09 12:12:46;;;;;;;636.63;584.43;;;;;30.10;97021.00;;;;5114915;27;20343;-66
2023/10/09 12:15:38;;;;;;;656.87;603.33;;;;;30.10;97007.00;;;;5101307;22;20647;-65
2023/10/09 12:18:29;;;;;;;680.00;625.77;;;;;31.10;97015.00;;;;5034558;28;20204;-65
2023/10/09 12:21:18;;;;;;;693.13;639.40;;;;;31.10;97056.00;;;;5039773;28;20211;-65
2023/10/09 12:24:12;;;;;;;700.38;646.78;;;;;30.30;97019.00;;;;5043563;28;20196;-65
2023/10/09 12:27:01;;;;;;;705.92;652.28;;;;;30.20;97059.00;;;;5021085;28;20219;-65
2023/10/09 12:29:50;;;;;;;707.05;653.22;;;;;29.70;97018.00;;;;5019849;28;20201;-65
2023/10/09 12:32:40;;;;;;;704.53;650.42;;;;;30.50;97024.00;;;;5024954;28;20238;-65
2023/10/09 12:35:33;;;;;;;700.08;646.53;;;;;31.20;97024.00;;;;5020872;28;20254;-65
2023/10/09 12:38:31;;;;;;;718.10;664.47;;;;;32.30;97009.00;;;;5020529;28;20268;-65
2023/10/09 12:41:25;;;;;;;727.15;673.17;;;;;31.80;97025.00;;;;5022197;28;20211;-65
2023/10/09 12:44:15;;;;;;;946.15;885.85;;;;;31.20;97011.00;;;;5016829;28;20403;-65
2023/10/09 12:47:04;;;;;;;982.37;921.47;;;;;31.50;97032.00;;;;5018775;28;20396;-66
2023/10/09 12:49:54;;;;;;;1001.70;939.87;;;;;31.20;97012.00;;;;5020931;28;20479;-65
2023/10/09 12:52:48;;;;;;;1007.90;946.08;;;;;31.70;97058.00;;;;5019168;28;20929;-65
2023/10/09 12:55:40;;;;;;;1012.67;950.58;;;;;31.30;97012.00;;;;5018930;28;20950;-65
2023/10/09 12:58:29;;;;;;;1016.47;954.33;;;;;31.40;97045.00;;;;5018125;28;20526;-65
2023/10/09 13:01:20;;;;;;;1012.60;950.90;;;;;30.30;97063.00;;;;5017769;28;20408;-65
2023/10/09 13:04:11;;;;;;;1006.15;945.13;;;;;30.20;97017.00;;;;5014165;28;20530;-65
2023/10/09 13:07:04;;;;;;;995.40;934.17;;;;;29.40;97055.00;;;;5017667;28;20888;-65
2023/10/09 13:10:09;;;;;;;989.80;928.58;;;;;30.10;97002.00;;;;5017862;28;20461;-65
2023/10/09 13:12:58;;;;;;;988.60;927.50;;;;;30.50;96998.00;;;;5011900;28;20478;-65
2023/10/09 13:15:47;;;;;;;994.80;933.25;;;;;30.20;97016.00;;;;5009848;28;20411;-65
2023/10/09 13:18:37;;;;;;;997.58;935.92;;;;;30.90;97003.00;;;;5016349;28;20415;-65
2023/10/09 13:21:31;;;;;;;1001.60;940.08;;;;;31.90;97012.00;;;;5011004;28;20412;-65
2023/10/09 13:24:29;;;;;;;1011.05;949.63;;;;;31.20;97011.00;;;;5012189;28;20399;-65
2023/10/09 13:27:21;;;;;;;1016.73;955.00;;;;;30.80;97020.00;;;;5011331;28;20466;-65
2023/10/09 13:30:21;;;;;;;1013.75;951.88;;;;;30.80;97013.00;;;;5011540;28;20988;-65
2023/10/09 13:33:16;;;;;;;1004.80;943.45;;;;;31.30;97019.00;;;;5012540;28;20957;-65
2023/10/09 13:36:15;;;;;;;1010.38;948.95;;;;;30.70;97010.00;;;;5007218;28;20426;-65
2023/10/09 13:42:10;;;;;;;1009.53;947.87;;;;;31.20;97019.00;;;;5011232;28;20903;-65
2023/10/09 13:45:04;;;;;;;1002.45;941.03;;;;;31.40;96999.00;;;;5021496;28;20399;-65
2023/10/09 13:47:54;;;;;;;1009.13;947.85;;;;;31.30;97025.00;;;;5016945;28;20399;-65
2023/10/09 13:50:44;;;;;;;1017.63;956.17;;;;;30.10;97017.00;;;;5018464;28;20400;-65
2023/10/09 13:53:35;;;;;;;1010.42;948.60;;;;;29.90;97044.00;;;;5020752;28;20411;-64
2023/10/09 13:56:27;;;;;;;995.55;934.28;;;;;30.10;97001.00;;;;5018667;28;20399;-65
2023/10/09 13:59:17;;;;;;;911.40;853.25;;;;;30.60;97031.00;;;;5021122;28;20428;-65
2023/10/09 14:02:09;;;;;;;909.63;852.15;;;;;30.70;97017.00;;;;5019119;28;20414;-65
2023/10/09 14:05:00;;;;;;;921.53;863.47;;;;;30.20;97047.00;;;;5019795;28;20407;-64
2023/10/09 14:07:49;;;;;;;895.88;838.72;;;;;29.10;97037.00;;;;5020662;28;20403;-65
2023/10/09 14:10:39;;;;;;;900.13;842.15;;;;;28.40;97042.00;;;;5015305;28;20445;-64
2023/10/09 14:13:29;;;;;;;881.20;823.67;;;;;27.90;97033.00;;;;5019798;28;20405;-64
2023/10/09 14:16:27;;;;;;;862.63;805.83;;;;;27.10;97023.00;;;;5024751;28;20411;-64
2023/10/09 14:19:20;;;;;;;849.60;793.00;;;;;26.60;97032.00;;;;5017973;28;20408;-64
2023/10/09 14:22:10;;;;;;;817.50;761.60;;;;;26.20;97024.00;;;;5025545;28;20393;-64
2023/10/09 14:24:59;;;;;;;803.10;747.40;;;;;25.70;97022.00;;;;5027671;28;20383;-64
2023/10/09 14:27:49;;;;;;;799.40;743.08;;;;;25.50;97034.00;;;;5024672;28;20418;-64
2023/10/09 14:30:42;;;;;;;772.00;716.63;;;;;25.00;97034.00;;;;5020675;28;20931;-64
2023/10/09 14:33:36;;;;;;;766.90;711.20;;;;;25.10;97036.00;;;;5017908;28;20500;-66
2023/10/09 14:36:33;;;;;;;755.45;700.40;;;;;25.00;97052.00;;;;5016606;28;20563;-67
2023/10/09 14:39:26;;;;;;;741.63;686.65;;;;;24.70;97047.00;;;;5013452;28;20401;-66
2023/10/09 14:42:15;;;;;;;731.60;676.92;;;;;24.70;97052.00;;;;5011977;28;20399;-67
2023/10/09 14:45:08;;;;;;;722.00;667.40;;;;;24.40;97054.00;;;;5011963;28;20768;-66
2023/10/09 14:47:59;;;;;;;712.90;658.60;;;;;24.30;97053.00;;;;5015417;28;20784;-66